Airfield :
LOGIN :

Register | Disclaimer

   EN    FR    IT 

 










Legend :    VFR   Marginal VFR   IFR   Intensive IFR   Very Intensive IFR
Visi :
Ceiling :
>= 8 km
>= 3000ft
5 to 8 km
1000 to 3000 ft
1500m to 5 km
500 to 1000 ft
800 to 1500m
200 to 500 ft
< 800m
< 200 ft
Symbols :   Thunderstorms  Fog  Heavy snow  Heavy precipitations  Wind > 20 kt
SIGMETs :     Misc.  Thunderstorms  Icing  Turbulence  Mountain Waves  Volcanic Ashes







- Airport Elevation : 1504 ft
- IATA code : PNA


LEPP - Noain Pamplona

CURRENT METAR :
  • 220400Z 03004KT 330V100 9999 2400SW TSRA FEW040 BKN072CB 14/10 Q1020 RETSRA

EXPIRED METARs :
  • 220352Z 36006KT 330V070 9999 TSRA FEW040 BKN072CB 14/09 Q1020
  • 220330Z 29005KT 9999 VCTS FEW040 SCT072CB 14/10 Q1021
  • 220300Z AUTO 00000KT CAVOK 14/10 Q1020
  • 220230Z AUTO VRB01KT CAVOK 14/10 Q1021
  • 220200Z AUTO VRB01KT 9999 FEW044 14/11 Q1021
  • 220130Z AUTO 30002KT CAVOK 15/10 Q1021

TAF TAF LEPP
Valid from the 22 at 03:00 until the 23 at 03:00 UTC


220200Z 2203/2303 33007KT 9999 SCT050 TX22/2215Z TN12/2206Z
TEMPO 2203/2218 RA SHRA SCT030TCU
PROB40
TEMPO 2203/2215 VRB15G25KT 3000 TSRA BKN014 SCT030CB
No reported NOTAMs for that airfield.
2 SIGMETs reported for the Madrid FIR (LECM) :
 
Embedded thunderstorms
LECM SIGMET 2 VALID 220357/220600 LEVA
LECM MADRID FIR/UIR EMBD TS OBS AT 0357Z WI N4010 W00110 - N4020 W00320 - N4140 W00250 - N4130 W001 - N4010 W00110 TOP FL360 MOV NE NC=
Embedded thunderstorms
LECM SIGMET 1 VALID 220257/220500 LEVA
LECM MADRID FIR/UIR EMBD TS OBS AT 0257Z N OF LINE N4140 W00250 - N4130 W001 TOP FL280 MOV NE 10KT NC=



MET'MAP, your aeronautical weather chart ! - Copyright ORBIFLY December 2007 - Disclaimer

ORBIFLY MET'MAP TEAM :

Programming & Development : Alexandra Zaïnal
Concept & Development : Baudouin d'Aumeries
Co-Development & Prog : Marc-Olivier Méhu
Technical & hardware support : Manuel Goepfert

Contact : metmap@orbifly.com




SOURCES & CREDITS :

   NOAA